Time;durP1;ratioP1;P1;durP2;ratioP2;P2;SDS_P1;SDS_P2;PMS_P1;PMS_P2;Temp;Humidity;BMP_temperature;BMP_pressure;BME280_temperature;BME280_humidity;BME280_pressure;Samples;Min_cycle;Max_cycle;Signal;HPM_P1;HPM_P2
2023/10/06 00:00:26;;;;;;;19.73;9.88;;;;;;;;;;5071653;28;20056;-59
2023/10/06 00:02:51;;;;;;;16.00;8.20;;;;;;;;;;5072562;28;20017;-60
2023/10/06 00:05:16;;;;;;;11.30;7.53;;;;;;;;;;5071417;28;20698;-60
2023/10/06 00:07:42;;;;;;;13.45;10.10;;;;;;;;;;5072675;28;20021;-59
2023/10/06 00:10:14;;;;;;;13.47;8.97;;;;;;;;;;5071266;28;20111;-59
2023/10/06 00:12:47;;;;;;;23.65;8.88;;;;;;;;;;5072938;28;20467;-59
2023/10/06 00:15:26;;;;;;;11.65;8.13;;;;;;;;;;5071624;28;20116;-59
2023/10/06 00:17:51;;;;;;;10.05;8.25;;;;;;;;;;5072435;28;20052;-59
2023/10/06 00:20:21;;;;;;;11.80;9.23;;;;;;;;;;5071225;28;20506;-60
2023/10/06 00:22:47;;;;;;;17.05;9.20;;;;;;;;;;5072971;28;20047;-59
2023/10/06 00:25:13;;;;;;;11.80;7.57;;;;;;;;;;5071174;28;20028;-59
2023/10/06 00:27:38;;;;;;;19.55;8.85;;;;;;;;;;5072273;28;20020;-60
2023/10/06 00:30:11;;;;;;;13.70;7.63;;;;;;;;;;5071107;28;20078;-61
2023/10/06 00:32:36;;;;;;;10.70;7.00;;;;;;;;;;5072343;28;20016;-59
2023/10/06 00:35:08;;;;;;;9.15;7.85;;;;;;;;;;5070190;28;20098;-60
2023/10/06 00:37:38;;;;;;;14.80;8.13;;;;;;;;;;5072186;28;20031;-61
2023/10/06 00:40:10;;;;;;;15.93;7.72;;;;;;;;;;5070747;28;20028;-60
2023/10/06 00:42:35;;;;;;;17.90;8.07;;;;;;;;;;5072473;28;20085;-59
2023/10/06 00:45:00;;;;;;;7.95;7.15;;;;;;;;;;5070728;28;20103;-59
2023/10/06 00:47:26;;;;;;;14.73;8.40;;;;;;;;;;5072214;28;20017;-64
2023/10/06 00:49:55;;;;;;;21.17;10.65;;;;;;;;;;5070348;28;20040;-61
2023/10/06 00:52:20;;;;;;;27.27;10.32;;;;;;;;;;5072361;28;20103;-60
2023/10/06 00:54:46;;;;;;;31.70;9.43;;;;;;;;;;5070949;28;20095;-58
2023/10/06 00:57:12;;;;;;;20.05;8.63;;;;;;;;;;5072099;28;20035;-61
2023/10/06 00:59:37;;;;;;;15.40;9.38;;;;;;;;;;5072119;28;20012;-61
2023/10/06 01:02:08;;;;;;;12.83;9.37;;;;;;;;;;5069684;28;20036;-61
2023/10/06 01:04:36;;;;;;;19.80;9.65;;;;;;;;;;5072153;28;20490;-61
2023/10/06 01:07:01;;;;;;;14.63;8.98;;;;;;;;;;5070157;28;20037;-60
2023/10/06 01:09:35;;;;;;;27.03;11.40;;;;;;;;;;5071479;28;20058;-61
2023/10/06 01:12:05;;;;;;;14.05;9.38;;;;;;;;;;5069992;28;20040;-61
2023/10/06 01:14:34;;;;;;;17.55;9.68;;;;;;;;;;5071726;28;20051;-60
2023/10/06 01:17:17;;;;;;;16.63;10.50;;;;;;;;;;5069190;28;20033;-61
2023/10/06 01:19:49;;;;;;;24.98;10.85;;;;;;;;;;5069865;28;20166;-61
2023/10/06 01:22:30;;;;;;;21.98;9.73;;;;;;;;;;5049608;28;20045;-60
2023/10/06 01:24:58;;;;;;;14.55;9.45;;;;;;;;;;5051581;28;20032;-60
2023/10/06 01:27:26;;;;;;;15.00;8.77;;;;;;;;;;5071700;28;20099;-61
2023/10/06 01:30:07;;;;;;;14.38;10.43;;;;;;;;;;5069517;28;20013;-60
2023/10/06 01:32:32;;;;;;;18.85;10.95;;;;;;;;;;5071524;28;20012;-67
2023/10/06 01:34:58;;;;;;;20.70;10.90;;;;;;;;;;5067901;28;20044;-60
2023/10/06 01:37:23;;;;;;;17.83;11.38;;;;;;;;;;5070854;28;20091;-61
2023/10/06 01:39:48;;;;;;;11.00;9.88;;;;;;;;;;5069712;28;20033;-61
2023/10/06 01:42:17;;;;;;;13.90;8.75;;;;;;;;;;5071096;28;20059;-61
2023/10/06 01:44:42;;;;;;;;;;;;;;;;;;5071307;28;20364;-61
2023/10/06 01:47:07;;;;;;;15.10;9.73;;;;;;;;;;5069738;28;19935;-63
2023/10/06 01:49:33;;;;;;;13.07;10.05;;;;;;;;;;5071003;28;20481;-61
2023/10/06 01:51:59;;;;;;;16.50;10.60;;;;;;;;;;5069057;28;20060;-61
2023/10/06 01:54:27;;;;;;;14.93;10.57;;;;;;;;;;5070990;28;20082;-61
2023/10/06 01:56:54;;;;;;;14.68;11.50;;;;;;;;;;5069322;28;20547;-61
2023/10/06 01:59:19;;;;;;;17.25;10.10;;;;;;;;;;5070852;28;20127;-61
2023/10/06 02:01:44;;;;;;;20.45;10.65;;;;;;;;;;5069303;28;20168;-61
2023/10/06 02:04:18;;;;;;;23.75;12.85;;;;;;;;;;5071069;28;20052;-61
2023/10/06 02:06:48;;;;;;;25.67;14.30;;;;;;;;;;5068838;28;20119;-61
2023/10/06 02:09:18;;;;;;;14.45;10.88;;;;;;;;;;5070877;28;20108;-62
2023/10/06 02:11:44;;;;;;;15.52;9.45;;;;;;;;;;5069015;28;20483;-67
2023/10/06 02:14:18;;;;;;;25.55;11.57;;;;;;;;;;5070389;28;20046;-61
2023/10/06 02:16:44;;;;;;;10.73;9.45;;;;;;;;;;5069150;28;20032;-61
2023/10/06 02:19:15;;;;;;;16.92;12.32;;;;;;;;;;5070748;28;20413;-60
2023/10/06 02:21:44;;;;;;;17.88;12.32;;;;;;;;;;5068422;28;20045;-60
2023/10/06 02:24:10;;;;;;;21.77;11.63;;;;;;;;;;5070384;28;20028;-60
2023/10/06 02:26:38;;;;;;;20.38;13.18;;;;;;;;;;5069345;28;20040;-60
2023/10/06 02:29:22;;;;;;;23.95;14.45;;;;;;;;;;5068625;28;20065;-60
2023/10/06 02:31:50;;;;;;;15.18;11.25;;;;;;;;;;5069278;28;20071;-60
2023/10/06 02:34:21;;;;;;;16.33;12.63;;;;;;;;;;5069985;28;20503;-59
2023/10/06 02:36:46;;;;;;;16.25;12.90;;;;;;;;;;5068550;28;20051;-60
2023/10/06 02:39:15;;;;;;;23.23;14.30;;;;;;;;;;5070625;28;20020;-60
2023/10/06 02:41:41;;;;;;;20.50;13.50;;;;;;;;;;5068778;28;20063;-60
2023/10/06 02:44:14;;;;;;;17.60;11.35;;;;;;;;;;5070129;28;20067;-61
2023/10/06 02:46:41;;;;;;;20.95;13.00;;;;;;;;;;5068946;28;20506;-60
2023/10/06 02:49:09;;;;;;;18.80;12.25;;;;;;;;;;5070355;28;20020;-60
2023/10/06 02:51:47;;;;;;;16.30;13.30;;;;;;;;;;5068755;28;20032;-60
2023/10/06 02:56:41;;;;;;;25.95;11.82;;;;;;;;;;5072817;28;20028;-61
2023/10/06 02:59:23;;;;;;;19.25;12.07;;;;;;;;;;5066072;28;20029;-61
2023/10/06 03:01:52;;;;;;;22.38;12.73;;;;;;;;;;5052866;28;20033;-61
2023/10/06 03:04:18;;;;;;;18.35;11.07;;;;;;;;;;5054422;28;20025;-61
2023/10/06 03:06:53;;;;;;;17.70;11.75;;;;;;;;;;5052195;28;20036;-61
2023/10/06 03:09:19;;;;;;;45.67;15.38;;;;;;;;;;5054462;28;20036;-66
2023/10/06 03:11:49;;;;;;;16.60;13.95;;;;;;;;;;5052366;28;20500;-59
2023/10/06 03:14:15;;;;;;;17.63;11.63;;;;;;;;;;5053319;28;20022;-60
2023/10/06 03:16:42;;;;;;;20.88;12.90;;;;;;;;;;5052238;28;20040;-60
2023/10/06 03:19:12;;;;;;;21.20;11.52;;;;;;;;;;5054294;28;20020;-60
2023/10/06 03:21:39;;;;;;;19.33;10.25;;;;;;;;;;5055397;28;20055;-60
2023/10/06 03:24:05;;;;;;;16.75;10.65;;;;;;;;;;5054799;28;20020;-60
2023/10/06 03:26:34;;;;;;;19.98;13.38;;;;;;;;;;5072536;28;20082;-60
2023/10/06 03:29:02;;;;;;;20.23;12.45;;;;;;;;;;5072906;28;20475;-60
2023/10/06 03:31:44;;;;;;;21.15;11.73;;;;;;;;;;5069953;28;20051;-60
2023/10/06 03:34:15;;;;;;;18.52;10.40;;;;;;;;;;5054046;28;20089;-60
2023/10/06 03:36:47;;;;;;;16.60;10.43;;;;;;;;;;5045518;28;20056;-60
2023/10/06 03:39:13;;;;;;;19.92;9.13;;;;;;;;;;5033562;28;20036;-60
2023/10/06 03:41:41;;;;;;;17.13;9.15;;;;;;;;;;5047562;28;20045;-60
2023/10/06 03:44:06;;;;;;;22.38;10.70;;;;;;;;;;5052941;28;20487;-69
2023/10/06 03:46:38;;;;;;;18.17;10.23;;;;;;;;;;5051934;28;20052;-61
2023/10/06 03:49:03;;;;;;;17.13;8.35;;;;;;;;;;5053307;28;20100;-60
2023/10/06 03:51:29;;;;;;;16.92;10.25;;;;;;;;;;5051644;28;20120;-60
2023/10/06 03:53:56;;;;;;;13.70;8.80;;;;;;;;;;5053338;28;20016;-60
2023/10/06 03:56:21;;;;;;;15.38;9.40;;;;;;;;;;5051600;28;20090;-68
2023/10/06 03:58:47;;;;;;;14.48;9.27;;;;;;;;;;5052530;28;20105;-60
2023/10/06 04:01:17;;;;;;;12.45;9.45;;;;;;;;;;5051771;28;20037;-60
2023/10/06 04:03:43;;;;;;;14.77;8.82;;;;;;;;;;5052484;28;20527;-60
2023/10/06 04:06:12;;;;;;;16.35;8.55;;;;;;;;;;5051168;28;20035;-60
2023/10/06 04:08:38;;;;;;;15.90;8.18;;;;;;;;;;5053198;28;20024;-60
2023/10/06 04:11:04;;;;;;;18.35;9.13;;;;;;;;;;5051033;28;20062;-60
2023/10/06 04:13:30;;;;;;;14.25;8.32;;;;;;;;;;5052755;28;20055;-60
2023/10/06 04:15:57;;;;;;;13.00;8.38;;;;;;;;;;5051289;28;20032;-60
2023/10/06 04:18:23;;;;;;;22.70;9.98;;;;;;;;;;5052630;28;20103;-60
2023/10/06 04:20:49;;;;;;;14.15;9.90;;;;;;;;;;5050745;28;20648;-60
2023/10/06 04:23:16;;;;;;;20.40;10.07;;;;;;;;;;5052752;28;20025;-60
2023/10/06 04:25:42;;;;;;;15.30;9.18;;;;;;;;;;5050851;28;20613;-59
2023/10/06 04:28:08;;;;;;;16.53;9.13;;;;;;;;;;5052287;28;20033;-59
2023/10/06 04:30:42;;;;;;;23.08;10.73;;;;;;;;;;5051115;28;20889;-59
2023/10/06 04:33:09;;;;;;;15.80;9.18;;;;;;;;;;5052546;28;20063;-59
2023/10/06 04:35:35;;;;;;;16.00;10.63;;;;;;;;;;5050663;28;20470;-69
2023/10/06 04:38:05;;;;;;;14.88;9.93;;;;;;;;;;5052348;28;20021;-59
2023/10/06 04:40:32;;;;;;;22.95;12.40;;;;;;;;;;5051153;28;20029;-59
2023/10/06 04:42:57;;;;;;;19.20;10.85;;;;;;;;;;5051623;28;20495;-59
2023/10/06 04:45:23;;;;;;;20.42;10.35;;;;;;;;;;5051130;28;20029;-59
2023/10/06 04:47:48;;;;;;;16.58;9.27;;;;;;;;;;5052220;28;20530;-59
2023/10/06 04:50:15;;;;;;;27.52;12.18;;;;;;;;;;5050178;28;20029;-59
2023/10/06 04:52:44;;;;;;;18.42;9.55;;;;;;;;;;5052160;28;20103;-59
2023/10/06 04:55:11;;;;;;;19.92;10.75;;;;;;;;;;5050482;28;20515;-62
2023/10/06 04:57:37;;;;;;;15.63;11.33;;;;;;;;;;5051941;28;20028;-60
2023/10/06 05:00:06;;;;;;;17.60;9.95;;;;;;;;;;5050194;28;20028;-60
2023/10/06 05:02:34;;;;;;;21.77;11.38;;;;;;;;;;5052283;28;20024;-59
2023/10/06 05:04:59;;;;;;;21.15;10.82;;;;;;;;;;5049864;28;20536;-59
2023/10/06 05:07:24;;;;;;;14.80;9.80;;;;;;;;;;5052133;28;20103;-60
2023/10/06 05:09:52;;;;;;;16.40;9.65;;;;;;;;;;5050212;28;20017;-62
2023/10/06 05:12:17;;;;;;;19.60;10.40;;;;;;;;;;5051707;28;20376;-60
2023/10/06 05:14:45;;;;;;;12.43;9.13;;;;;;;;;;5051129;28;20452;-62
2023/10/06 05:17:16;;;;;;;26.77;12.45;;;;;;;;;;5048762;28;20076;-60
2023/10/06 05:19:41;;;;;;;18.90;9.38;;;;;;;;;;5051360;28;20028;-60
2023/10/06 05:22:06;;;;;;;17.10;10.13;;;;;;;;;;5050227;28;20626;-61
2023/10/06 05:24:32;;;;;;;23.15;9.55;;;;;;;;;;5051626;28;20104;-60
2023/10/06 05:26:57;;;;;;;11.82;9.27;;;;;;;;;;5049511;28;20060;-60
2023/10/06 05:29:24;;;;;;;16.43;10.30;;;;;;;;;;5051477;28;20105;-60
2023/10/06 05:31:49;;;;;;;20.95;8.50;;;;;;;;;;5049760;28;20118;-61
2023/10/06 05:34:17;;;;;;;33.13;12.17;;;;;;;;;;5050926;28;20563;-60
2023/10/06 05:36:42;;;;;;;11.98;8.32;;;;;;;;;;5049783;28;20032;-60
2023/10/06 05:39:11;;;;;;;14.48;8.70;;;;;;;;;;5051303;28;20529;-60
2023/10/06 05:41:36;;;;;;;12.90;9.32;;;;;;;;;;5049541;28;20124;-60
2023/10/06 05:44:02;;;;;;;13.48;7.13;;;;;;;;;;5051129;28;20601;-60
2023/10/06 05:46:27;;;;;;;16.98;8.80;;;;;;;;;;5049656;28;20044;-60
2023/10/06 05:48:52;;;;;;;12.87;8.23;;;;;;;;;;5050708;28;20021;-60
2023/10/06 05:51:21;;;;;;;18.67;9.10;;;;;;;;;;5049812;28;20497;-60
2023/10/06 05:53:48;;;;;;;18.05;8.63;;;;;;;;;;5051030;28;20017;-60
2023/10/06 05:56:15;;;;;;;23.20;10.55;;;;;;;;;;5049255;28;20033;-60
2023/10/06 05:58:40;;;;;;;40.30;10.60;;;;;;;;;;5051016;28;20326;-60
2023/10/06 06:01:06;;;;;;;18.23;9.25;;;;;;;;;;5049675;28;20036;-60
2023/10/06 06:03:31;;;;;;;23.08;8.38;;;;;;;;;;5050866;28;20017;-60
2023/10/06 06:05:57;;;;;;;13.77;8.45;;;;;;;;;;5049352;28;20037;-60
2023/10/06 06:08:23;;;;;;;10.88;8.10;;;;;;;;;;5050941;28;20032;-60
2023/10/06 06:10:48;;;;;;;27.52;8.88;;;;;;;;;;5048661;28;20044;-60
2023/10/06 06:13:13;;;;;;;17.65;10.07;;;;;;;;;;5051106;28;20031;-61
2023/10/06 06:15:39;;;;;;;18.75;8.80;;;;;;;;;;5049161;28;20037;-61
2023/10/06 06:18:04;;;;;;;15.82;11.05;;;;;;;;;;5050311;28;20041;-59
2023/10/06 06:20:30;;;;;;;14.57;9.35;;;;;;;;;;5049103;28;20033;-59
2023/10/06 06:22:58;;;;;;;15.75;9.50;;;;;;;;;;5050276;28;20017;-59
2023/10/06 06:25:23;;;;;;;11.18;8.52;;;;;;;;;;5049486;28;20033;-59
2023/10/06 06:27:49;;;;;;;12.15;8.10;;;;;;;;;;5050039;28;20519;-59
2023/10/06 06:30:20;;;;;;;12.45;8.00;;;;;;;;;;5049256;28;20033;-59
2023/10/06 06:32:48;;;;;;;21.98;11.27;;;;;;;;;;5050463;28;20013;-59
2023/10/06 06:35:13;;;;;;;17.73;11.65;;;;;;;;;;5048578;28;20037;-59
2023/10/06 06:37:41;;;;;;;20.65;11.50;;;;;;;;;;5050443;28;20139;-59
2023/10/06 06:40:10;;;;;;;17.15;11.80;;;;;;;;;;5049400;28;20021;-58
2023/10/06 06:42:35;;;;;;;17.23;11.98;;;;;;;;;;5050082;28;20459;-59
2023/10/06 06:45:01;;;;;;;23.07;13.90;;;;;;;;;;5048705;28;20100;-59
2023/10/06 06:47:26;;;;;;;17.48;11.38;;;;;;;;;;5050702;28;20017;-60
2023/10/06 06:49:51;;;;;;;18.65;11.85;;;;;;;;;;5048171;28;20550;-58
2023/10/06 06:52:16;;;;;;;15.03;9.47;;;;;;;;;;5050697;28;20009;-59
2023/10/06 06:54:46;;;;;;;17.97;9.23;;;;;;;;;;5050329;28;20431;-59
2023/10/06 06:57:12;;;;;;;12.13;7.55;;;;;;;;;;5048472;28;20029;-59
2023/10/06 06:59:39;;;;;;;19.55;9.52;;;;;;;;;;5050279;28;20111;-59
2023/10/06 07:02:04;;;;;;;10.05;7.00;;;;;;;;;;5048764;28;20044;-64
2023/10/06 07:04:30;;;;;;;13.10;7.80;;;;;;;;;;5050183;28;20656;-59
2023/10/06 07:06:55;;;;;;;23.20;8.32;;;;;;;;;;5048564;28;20083;-59
2023/10/06 07:09:22;;;;;;;11.03;7.07;;;;;;;;;;5049997;28;20107;-59
2023/10/06 07:11:47;;;;;;;13.10;5.97;;;;;;;;;;5048199;28;21078;-59
2023/10/06 07:14:14;;;;;;;10.98;6.07;;;;;;;;;;5050354;28;20025;-59
2023/10/06 07:16:41;;;;;;;11.50;7.18;;;;;;;;;;5049712;28;20036;-59
2023/10/06 07:19:06;;;;;;;15.30;6.80;;;;;;;;;;5059167;28;20027;-59
2023/10/06 07:21:31;;;;;;;10.50;4.53;;;;;;;;;;5054241;28;20120;-59
2023/10/06 07:23:56;;;;;;;11.45;6.13;;;;;;;;;;5049681;28;20017;-59
2023/10/06 07:26:22;;;;;;;12.27;6.10;;;;;;;;;;5034925;28;20468;-59
2023/10/06 07:28:51;;;;;;;16.95;6.97;;;;;;;;;;5029689;28;20033;-59
2023/10/06 07:31:17;;;;;;;13.43;7.40;;;;;;;;;;5040724;28;20035;-59
2023/10/06 07:33:43;;;;;;;8.82;6.07;;;;;;;;;;5047658;28;20131;-59
2023/10/06 07:36:17;;;;;;;15.27;6.63;;;;;;;;;;5062338;28;20086;-59
2023/10/06 07:38:42;;;;;;;12.00;7.13;;;;;;;;;;5070981;28;20036;-62
2023/10/06 07:41:07;;;;;;;11.50;6.47;;;;;;;;;;5071537;28;20032;-59
2023/10/06 07:43:33;;;;;;;7.10;5.88;;;;;;;;;;5059793;28;20442;-59
2023/10/06 07:46:01;;;;;;;7.07;5.37;;;;;;;;;;5051648;28;20036;-59
2023/10/06 07:48:26;;;;;;;8.32;5.53;;;;;;;;;;5052929;28;20029;-59
2023/10/06 07:50:51;;;;;;;11.27;5.03;;;;;;;;;;5051686;28;20551;-59
2023/10/06 07:53:16;;;;;;;13.60;4.73;;;;;;;;;;5053390;28;20017;-59
2023/10/06 07:55:41;;;;;;;8.85;5.78;;;;;;;;;;5048204;28;20040;-59
2023/10/06 07:58:08;;;;;;;9.38;6.75;;;;;;;;;;5050512;28;20411;-59
2023/10/06 08:00:38;;;;;;;5.57;4.30;;;;;;;;;;5057453;28;20050;-59
2023/10/06 08:03:04;;;;;;;12.02;5.15;;;;;;;;;;5072103;28;20019;-59
2023/10/06 08:05:29;;;;;;;9.82;5.05;;;;;;;;;;5070690;28;20036;-58
2023/10/06 08:07:54;;;;;;;6.97;4.17;;;;;;;;;;5072366;28;20096;-59
2023/10/06 08:10:20;;;;;;;13.73;6.63;;;;;;;;;;5070723;28;20025;-59
2023/10/06 08:12:50;;;;;;;11.48;4.90;;;;;;;;;;5072832;28;20056;-61
2023/10/06 08:15:17;;;;;;;16.98;5.70;;;;;;;;;;5071665;28;20028;-61
2023/10/06 08:17:42;;;;;;;12.43;5.18;;;;;;;;;;5072099;28;20024;-59
2023/10/06 08:20:12;;;;;;;11.38;5.07;;;;;;;;;;5070124;28;20035;-58
2023/10/06 08:22:37;;;;;;;11.52;4.43;;;;;;;;;;5073149;28;20094;-59
2023/10/06 08:25:09;;;;;;;8.52;5.32;;;;;;;;;;5070905;28;20361;-59
2023/10/06 08:27:34;;;;;;;8.30;4.95;;;;;;;;;;5072711;28;20468;-59
2023/10/06 08:30:00;;;;;;;9.45;4.63;;;;;;;;;;5070807;28;20033;-59
2023/10/06 08:32:25;;;;;;;12.20;4.95;;;;;;;;;;5072445;28;20418;-59
2023/10/06 08:34:51;;;;;;;10.50;5.30;;;;;;;;;;5070443;28;20557;-58
2023/10/06 08:37:16;;;;;;;10.50;5.13;;;;;;;;;;5072830;28;20013;-59
2023/10/06 08:39:44;;;;;;;9.38;4.93;;;;;;;;;;5071888;28;20439;-59
2023/10/06 08:42:10;;;;;;;18.17;7.45;;;;;;;;;;5070871;28;20045;-59
2023/10/06 08:44:40;;;;;;;8.68;4.30;;;;;;;;;;5072517;28;20048;-59
2023/10/06 08:47:06;;;;;;;16.60;5.78;;;;;;;;;;5070533;28;20062;-59
2023/10/06 08:49:32;;;;;;;8.50;5.05;;;;;;;;;;5071740;28;20533;-58
2023/10/06 08:51:58;;;;;;;15.35;6.90;;;;;;;;;;5069931;28;20078;-59
2023/10/06 08:54:23;;;;;;;6.95;5.38;;;;;;;;;;5071745;28;20012;-59
2023/10/06 08:56:48;;;;;;;9.73;4.30;;;;;;;;;;5070334;28;20067;-59
2023/10/06 08:59:16;;;;;;;11.95;4.65;;;;;;;;;;5072221;28;20498;-59
2023/10/06 09:01:43;;;;;;;10.95;4.78;;;;;;;;;;5069755;28;20033;-59
2023/10/06 09:04:09;;;;;;;7.13;5.13;;;;;;;;;;5072148;28;20353;-59
2023/10/06 09:06:35;;;;;;;8.18;5.45;;;;;;;;;;5070446;28;20039;-59
2023/10/06 09:09:01;;;;;;;16.60;6.50;;;;;;;;;;5071450;28;20020;-68
2023/10/06 09:11:39;;;;;;;11.63;5.00;;;;;;;;;;5070379;28;20040;-58
2023/10/06 09:14:05;;;;;;;17.52;5.50;;;;;;;;;;5071584;28;20048;-58
2023/10/06 09:16:49;;;;;;;12.30;4.65;;;;;;;;;;5069665;28;20059;-58
2023/10/06 09:19:14;;;;;;;12.85;5.45;;;;;;;;;;5068599;28;20044;-58
2023/10/06 09:21:59;;;;;;;10.27;5.38;;;;;;;;;;5069866;28;20063;-58
2023/10/06 09:24:25;;;;;;;13.65;5.10;;;;;;;;;;5071280;28;20008;-58
2023/10/06 09:26:50;;;;;;;10.85;4.78;;;;;;;;;;5069780;28;20128;-59
2023/10/06 09:29:28;;;;;;;15.02;5.75;;;;;;;;;;5071527;28;20107;-58
2023/10/06 09:31:57;;;;;;;8.27;5.65;;;;;;;;;;5069222;28;20032;-58
2023/10/06 09:34:23;;;;;;;12.82;5.68;;;;;;;;;;5070813;28;20072;-58
2023/10/06 09:36:48;;;;;;;15.13;6.28;;;;;;;;;;5069274;28;20067;-58
2023/10/06 09:39:24;;;;;;;15.93;6.93;;;;;;;;;;5070838;28;20070;-58
2023/10/06 09:41:51;;;;;;;15.15;7.82;;;;;;;;;;5069566;28;20124;-59
2023/10/06 09:44:18;;;;;;;18.50;4.65;;;;;;;;;;5071340;28;20024;-59
2023/10/06 09:46:45;;;;;;;8.45;4.50;;;;;;;;;;5068814;28;20033;-58
2023/10/06 09:49:12;;;;;;;6.20;4.57;;;;;;;;;;5071051;28;20426;-58
2023/10/06 09:51:37;;;;;;;13.45;5.53;;;;;;;;;;5069679;28;20029;-58
2023/10/06 09:54:05;;;;;;;13.43;5.68;;;;;;;;;;5070618;28;20475;-58
2023/10/06 09:56:31;;;;;;;5.23;4.73;;;;;;;;;;5069222;28;20032;-58
2023/10/06 09:58:57;;;;;;;10.20;5.05;;;;;;;;;;5070951;28;20457;-58
2023/10/06 10:01:25;;;;;;;13.88;6.07;;;;;;;;;;5068832;28;20040;-58
2023/10/06 10:03:55;;;;;;;11.35;4.75;;;;;;;;;;5070705;28;20062;-58
2023/10/06 10:06:21;;;;;;;12.38;5.90;;;;;;;;;;5066981;28;20037;-58
2023/10/06 10:08:46;;;;;;;8.93;4.32;;;;;;;;;;5050753;28;20356;-71
2023/10/06 10:11:20;;;;;;;15.25;7.28;;;;;;;;;;5066997;28;20043;-58
2023/10/06 10:14:06;;;;;;;6.55;3.65;;;;;;;;;;5070084;28;20051;-58
2023/10/06 10:16:44;;;;;;;10.27;6.05;;;;;;;;;;5064869;28;20036;-58
2023/10/06 10:19:13;;;;;;;10.45;3.92;;;;;;;;;;5057963;28;20015;-62
2023/10/06 10:21:41;;;;;;;9.93;5.50;;;;;;;;;;5062006;28;20036;-59
2023/10/06 10:24:09;;;;;;;8.10;5.38;;;;;;;;;;5053519;28;20028;-57
2023/10/06 10:26:35;;;;;;;12.02;5.00;;;;;;;;;;5055298;28;20037;-57
2023/10/06 10:29:12;;;;;;;19.38;5.90;;;;;;;;;;5050306;28;20016;-68
2023/10/06 10:31:37;;;;;;;12.13;5.47;;;;;;;;;;5057476;28;20052;-70
2023/10/06 10:34:02;;;;;;;16.17;5.95;;;;;;;;;;5070387;28;20437;-58
2023/10/06 10:36:27;;;;;;;9.32;4.72;;;;;;;;;;5069056;28;20055;-58
2023/10/06 10:38:56;;;;;;;9.27;5.03;;;;;;;;;;5069717;28;20063;-57
2023/10/06 10:41:23;;;;;;;14.45;6.35;;;;;;;;;;5068955;28;20048;-58
2023/10/06 10:43:48;;;;;;;13.18;5.30;;;;;;;;;;5069982;28;20494;-58
2023/10/06 10:46:14;;;;;;;13.38;5.13;;;;;;;;;;5068259;28;20036;-58
2023/10/06 10:48:48;;;;;;;12.40;5.45;;;;;;;;;;5069432;28;20555;-58
2023/10/06 10:51:14;;;;;;;12.85;5.90;;;;;;;;;;5067951;28;20033;-57
2023/10/06 10:53:43;;;;;;;13.35;6.45;;;;;;;;;;5068694;28;20569;-58
2023/10/06 10:56:17;;;;;;;10.80;4.70;;;;;;;;;;5067831;28;20087;-58
2023/10/06 10:58:42;;;;;;;9.80;5.55;;;;;;;;;;5069302;28;20013;-59
2023/10/06 11:01:23;;;;;;;11.73;5.18;;;;;;;;;;5067241;28;20041;-58
2023/10/06 11:04:08;;;;;;;11.85;5.05;;;;;;;;;;5060073;28;20044;-58
2023/10/06 11:06:33;;;;;;;15.15;5.32;;;;;;;;;;5048772;28;20045;-59
2023/10/06 11:08:59;;;;;;;12.40;5.65;;;;;;;;;;5049967;28;20365;-58
2023/10/06 11:11:25;;;;;;;8.43;3.72;;;;;;;;;;5048749;28;20511;-58
2023/10/06 11:13:57;;;;;;;15.82;5.10;;;;;;;;;;5049679;28;20411;-60
2023/10/06 11:16:23;;;;;;;10.60;3.88;;;;;;;;;;5052125;28;20033;-62
2023/10/06 11:18:49;;;;;;;9.93;4.70;;;;;;;;;;5053942;28;20097;-59
2023/10/06 11:21:24;;;;;;;10.02;3.67;;;;;;;;;;5053527;28;20495;-58
2023/10/06 11:23:49;;;;;;;12.20;4.45;;;;;;;;;;5055206;28;20021;-58
2023/10/06 11:26:26;;;;;;;11.10;4.35;;;;;;;;;;5061491;28;20106;-59
2023/10/06 11:28:51;;;;;;;10.88;4.85;;;;;;;;;;5051892;28;20048;-58
2023/10/06 11:31:16;;;;;;;13.10;5.07;;;;;;;;;;5052206;28;20499;-58
2023/10/06 11:33:41;;;;;;;9.40;4.35;;;;;;;;;;5053364;28;20045;-59
2023/10/06 11:36:07;;;;;;;7.90;4.78;;;;;;;;;;5052207;28;20396;-59
2023/10/06 11:38:32;;;;;;;7.88;4.72;;;;;;;;;;5051878;28;20020;-58
2023/10/06 11:40:57;;;;;;;8.87;4.20;;;;;;;;;;5050162;28;20036;-58
2023/10/06 11:43:23;;;;;;;13.10;5.50;;;;;;;;;;5053326;28;20017;-58
2023/10/06 11:45:59;;;;;;;11.27;4.95;;;;;;;;;;5051421;28;20033;-58
2023/10/06 11:48:29;;;;;;;12.80;5.55;;;;;;;;;;5053414;28;20021;-58
2023/10/06 11:51:06;;;;;;;11.15;5.32;;;;;;;;;;5051958;28;20029;-58
2023/10/06 11:53:32;;;;;;;14.38;5.60;;;;;;;;;;5053180;28;20376;-58
2023/10/06 11:56:04;;;;;;;12.68;3.83;;;;;;;;;;5051616;28;20033;-58
2023/10/06 11:58:30;;;;;;;9.95;4.03;;;;;;;;;;5053367;28;20027;-58
2023/10/06 12:00:55;;;;;;;15.63;5.15;;;;;;;;;;5051296;28;20492;-58
2023/10/06 12:03:32;;;;;;;11.50;5.63;;;;;;;;;;5052987;28;20029;-58
2023/10/06 12:05:58;;;;;;;8.73;4.03;;;;;;;;;;5050657;28;20516;-58
2023/10/06 12:08:23;;;;;;;15.70;6.47;;;;;;;;;;5053232;28;20028;-69
2023/10/06 12:10:50;;;;;;;9.98;4.28;;;;;;;;;;5051405;28;20045;-58
2023/10/06 12:13:15;;;;;;;8.63;4.60;;;;;;;;;;5053035;28;20097;-58
2023/10/06 12:15:40;;;;;;;12.70;3.30;;;;;;;;;;5051007;28;20108;-58
2023/10/06 12:18:06;;;;;;;6.53;4.30;;;;;;;;;;5053102;28;20475;-58
2023/10/06 12:20:35;;;;;;;8.63;4.28;;;;;;;;;;5051562;28;21273;-58
2023/10/06 12:23:00;;;;;;;9.75;3.50;;;;;;;;;;5051678;28;20017;-58
2023/10/06 12:25:25;;;;;;;9.43;4.13;;;;;;;;;;5056027;28;20029;-58
2023/10/06 12:27:51;;;;;;;6.68;4.07;;;;;;;;;;5072448;28;20403;-58
2023/10/06 12:30:20;;;;;;;29.92;4.68;;;;;;;;;;5069817;28;20115;-58
2023/10/06 12:32:45;;;;;;;13.18;3.45;;;;;;;;;;5063453;28;20426;-58
2023/10/06 12:35:11;;;;;;;9.68;5.00;;;;;;;;;;5069585;28;20051;-58
2023/10/06 12:37:42;;;;;;;8.15;5.57;;;;;;;;;;5071297;28;20098;-59
2023/10/06 12:40:09;;;;;;;12.88;4.72;;;;;;;;;;5070369;28;20058;-58
2023/10/06 12:42:35;;;;;;;10.70;5.07;;;;;;;;;;5052499;28;20025;-59
2023/10/06 12:45:00;;;;;;;5.45;4.35;;;;;;;;;;5065759;28;20381;-68
2023/10/06 12:47:26;;;;;;;9.68;5.57;;;;;;;;;;5051255;28;20383;-58
2023/10/06 12:49:51;;;;;;;10.05;4.32;;;;;;;;;;5048915;28;20029;-66
2023/10/06 12:52:17;;;;;;;7.07;3.80;;;;;;;;;;5051137;28;20020;-59
2023/10/06 12:54:44;;;;;;;6.93;3.57;;;;;;;;;;5050907;28;20467;-58
2023/10/06 12:57:09;;;;;;;12.55;5.80;;;;;;;;;;5069646;28;20028;-58
2023/10/06 12:59:34;;;;;;;6.43;3.50;;;;;;;;;;5071774;28;20027;-59
2023/10/06 13:02:03;;;;;;;14.17;4.50;;;;;;;;;;5068328;28;20040;-59
2023/10/06 13:04:29;;;;;;;8.32;4.15;;;;;;;;;;5065303;28;20454;-58
2023/10/06 13:06:54;;;;;;;9.15;4.40;;;;;;;;;;5069410;28;20092;-58
2023/10/06 13:09:22;;;;;;;16.17;5.22;;;;;;;;;;5071582;28;20028;-59
2023/10/06 13:11:47;;;;;;;9.63;5.47;;;;;;;;;;5065511;28;20029;-59
2023/10/06 13:14:15;;;;;;;10.20;4.57;;;;;;;;;;5057491;28;20024;-59
2023/10/06 13:16:41;;;;;;;7.82;4.70;;;;;;;;;;5051340;28;20112;-58
2023/10/06 13:19:06;;;;;;;6.50;3.65;;;;;;;;;;5051707;28;20040;-59
2023/10/06 13:21:31;;;;;;;7.03;4.75;;;;;;;;;;5063835;28;20491;-61
2023/10/06 13:23:58;;;;;;;10.27;4.13;;;;;;;;;;5070959;28;20028;-58
2023/10/06 13:26:23;;;;;;;22.50;6.13;;;;;;;;;;5070257;28;20040;-59
2023/10/06 13:28:48;;;;;;;6.87;3.83;;;;;;;;;;5071072;28;20012;-62
2023/10/06 13:31:14;;;;;;;11.88;4.70;;;;;;;;;;5070041;28;20479;-58
2023/10/06 13:33:40;;;;;;;5.82;3.75;;;;;;;;;;5070148;28;20099;-59
2023/10/06 13:36:06;;;;;;;25.43;5.83;;;;;;;;;;5068558;28;20053;-59
2023/10/06 13:38:34;;;;;;;10.15;4.25;;;;;;;;;;5071646;28;20021;-59
2023/10/06 13:41:00;;;;;;;11.57;3.45;;;;;;;;;;5069568;28;20119;-59
2023/10/06 13:43:26;;;;;;;15.02;5.47;;;;;;;;;;5064657;28;20105;-60
2023/10/06 13:45:53;;;;;;;9.98;4.03;;;;;;;;;;5049656;28;20033;-59
2023/10/06 13:48:22;;;;;;;11.80;4.38;;;;;;;;;;5051479;28;20031;-58
2023/10/06 13:50:48;;;;;;;11.73;5.38;;;;;;;;;;5049325;28;20033;-59
2023/10/06 13:53:15;;;;;;;6.35;3.13;;;;;;;;;;5051556;28;20013;-59
2023/10/06 13:55:40;;;;;;;6.90;3.38;;;;;;;;;;5049279;28;20567;-59
2023/10/06 13:58:05;;;;;;;8.55;5.30;;;;;;;;;;5049484;28;20088;-59
2023/10/06 14:00:40;;;;;;;15.30;6.35;;;;;;;;;;5049581;28;20117;-59
2023/10/06 14:03:11;;;;;;;12.02;3.83;;;;;;;;;;5052313;28;20013;-59
2023/10/06 14:05:43;;;;;;;5.47;3.70;;;;;;;;;;5058759;28;20411;-59
2023/10/06 14:08:13;;;;;;;8.32;5.25;;;;;;;;;;5071293;28;20422;-59
2023/10/06 14:10:39;;;;;;;9.52;4.15;;;;;;;;;;5052823;28;20065;-57
2023/10/06 14:13:08;;;;;;;10.68;3.85;;;;;;;;;;5050994;28;20059;-57
2023/10/06 14:16:22;;;;;;;7.40;4.18;;;;;;;;;;5058621;28;20044;-64
2023/10/06 14:18:25;;;;;;;6.20;4.00;;;;;;;;;;5065058;28;20104;-57
2023/10/06 14:20:52;;;;;;;14.57;4.85;;;;;;;;;;5051089;28;20037;-59
2023/10/06 14:23:31;;;;;;;10.23;4.72;;;;;;;;;;5051877;28;20341;-59
2023/10/06 14:25:58;;;;;;;7.47;5.65;;;;;;;;;;5049148;28;20056;-64
2023/10/06 14:28:23;;;;;;;10.87;4.13;;;;;;;;;;5058262;28;20044;-60
2023/10/06 14:30:53;;;;;;;13.37;5.20;;;;;;;;;;5047260;28;20067;-60
2023/10/06 14:33:28;;;;;;;8.73;4.35;;;;;;;;;;5048840;28;20103;-60
2023/10/06 14:46:38;;;;;;;9.95;4.50;;;;;;;;;;5047420;28;20040;-60